Time;durP1;ratioP1;P1;durP2;ratioP2;P2;SDS_P1;SDS_P2;PMS_P1;PMS_P2;Temp;Humidity;BMP_temperature;BMP_pressure;BME280_temperature;BME280_humidity;BME280_pressure;Samples;Min_cycle;Max_cycle;Signal;HPM_P1;HPM_P2
2023/08/10 00:02:29;;;;;;;9.20;6.20;;;;;;;13.44;95.36;100928.77;105696;1260;99448;-87
2023/08/10 00:05:16;;;;;;;8.70;6.30;;;;;;;13.42;95.34;100930.84;105758;1259;96530;-85
2023/08/10 00:08:01;;;;;;;8.80;7.60;;;;;;;13.41;95.55;100933.80;105858;1259;97107;-86
2023/08/10 00:10:52;;;;;;;10.30;7.60;;;;;;;13.42;95.71;100936.41;106003;1264;100816;-88
2023/08/10 00:13:37;;;;;;;9.60;7.70;;;;;;;13.41;95.96;100935.95;105729;1264;99849;-85
2023/08/10 00:16:23;;;;;;;9.40;8.40;;;;;;;13.42;96.44;100937.53;105642;1260;97876;-86
2023/08/10 00:19:09;;;;;;;9.50;8.20;;;;;;;13.43;96.72;100940.98;105863;1261;96591;-87
2023/08/10 00:21:55;;;;;;;13.20;8.20;;;;;;;13.43;96.60;100934.98;106004;1259;96696;-86
2023/08/10 00:24:41;;;;;;;10.50;8.20;;;;;;;13.42;96.72;100936.38;105936;1266;100206;-86
2023/08/10 00:27:27;;;;;;;8.70;7.90;;;;;;;13.41;96.15;100935.13;105792;1259;100593;-87
2023/08/10 00:30:14;;;;;;;11.10;7.60;;;;;;;13.37;96.03;100937.61;105790;1259;97817;-86
2023/08/10 00:32:59;;;;;;;9.80;7.10;;;;;;;13.33;95.82;100938.00;105625;1261;96518;-86
2023/08/10 00:35:45;;;;;;;7.90;7.00;;;;;;;13.27;95.62;100942.52;105600;1260;96562;-86
2023/08/10 00:38:31;;;;;;;12.10;7.10;;;;;;;13.22;95.38;100938.09;105736;1260;100079;-86
2023/08/10 00:41:17;;;;;;;7.90;7.00;;;;;;;13.19;95.26;100940.47;105891;1260;99981;-87
2023/08/10 00:44:03;;;;;;;9.20;6.70;;;;;;;13.17;95.21;100942.20;105721;1265;97788;-86
2023/08/10 00:46:50;;;;;;;9.10;7.20;;;;;;;13.15;95.42;100938.12;105851;1261;96540;-86
2023/08/10 00:49:36;;;;;;;9.40;7.40;;;;;;;13.12;95.35;100940.95;105713;1261;96540;-85
2023/08/10 00:52:22;;;;;;;8.90;7.20;;;;;;;13.09;95.20;100941.76;105820;1259;100656;-87
2023/08/10 00:55:07;;;;;;;9.40;8.30;;;;;;;13.06;95.70;100942.98;105842;1264;99183;-86
2023/08/10 00:57:53;;;;;;;8.00;7.20;;;;;;;13.05;95.64;100941.32;105618;1259;98839;-85
2023/08/10 01:00:39;;;;;;;9.40;7.40;;;;;;;13.05;95.58;100940.10;105640;1267;96523;-86
2023/08/10 01:03:25;;;;;;;11.20;7.50;;;;;;;13.04;95.37;100942.39;105757;1264;97170;-86
2023/08/10 01:06:17;;;;;;;10.10;6.90;;;;;;;12.99;94.82;100941.39;105746;1259;101472;-86
2023/08/10 01:09:38;;;;;;;8.50;6.70;;;;;;;12.95;94.62;100942.46;105665;1260;100428;-86
2023/08/10 01:12:37;;;;;;;9.10;6.70;;;;;;;12.91;94.43;100939.04;105672;1266;98032;-86
2023/08/10 01:15:39;;;;;;;10.30;6.50;;;;;;;12.88;94.55;100936.17;105715;1259;96530;-87
2023/08/10 01:18:27;;;;;;;10.40;6.50;;;;;;;12.84;94.69;100940.96;105727;1264;97052;-86
2023/08/10 01:21:38;;;;;;;7.40;6.30;;;;;;;12.79;94.88;100940.67;105652;1259;100086;-87
2023/08/10 01:24:29;;;;;;;7.90;6.90;;;;;;;12.76;94.63;100946.72;105617;1259;101324;-86
2023/08/10 01:27:16;;;;;;;7.60;6.00;;;;;;;12.72;94.77;100948.80;105888;1260;98533;-86
2023/08/10 01:30:04;;;;;;;6.30;5.70;;;;;;;12.67;94.35;100951.75;105864;1259;96553;-86
2023/08/10 01:32:55;;;;;;;5.50;5.00;;;;;;;12.63;94.43;100951.25;105709;1260;97167;-86
2023/08/10 01:35:40;;;;;;;6.80;5.90;;;;;;;12.59;94.63;100951.91;105711;1264;100011;-86
2023/08/10 01:38:28;;;;;;;6.40;5.00;;;;;;;12.56;94.52;100952.98;105723;1264;99097;-86
2023/08/10 01:41:13;;;;;;;6.70;5.40;;;;;;;12.54;94.56;100950.91;105648;1263;97828;-85
2023/08/10 01:43:59;;;;;;;7.50;6.30;;;;;;;12.53;94.56;100953.30;105671;1260;96681;-87
2023/08/10 01:46:47;;;;;;;7.30;6.30;;;;;;;12.52;94.46;100951.42;105815;1259;97298;-87
2023/08/10 01:49:34;;;;;;;9.60;7.50;;;;;;;12.50;94.62;100950.38;105818;1264;100136;-85
2023/08/10 01:52:26;;;;;;;8.10;6.10;;;;;;;12.51;94.98;100952.41;105768;1262;99563;-85
2023/08/10 01:55:12;;;;;;;12.60;7.90;;;;;;;12.52;95.36;100954.76;105763;1259;99005;-86
2023/08/10 01:57:58;;;;;;;13.20;7.90;;;;;;;12.55;95.55;100956.43;105713;1259;97983;-85
2023/08/10 02:00:44;;;;;;;11.30;7.60;;;;;;;12.55;95.54;100961.85;106012;1259;96618;-87
2023/08/10 02:03:30;;;;;;;9.20;8.30;;;;;;;12.54;95.79;100962.73;105960;1265;100099;-86
2023/08/10 02:06:16;;;;;;;9.90;7.90;;;;;;;12.52;95.70;100963.51;105702;1260;99191;-86
2023/08/10 02:09:02;;;;;;;9.60;7.30;;;;;;;12.49;95.30;100968.56;105910;1265;98307;-86
2023/08/10 02:11:50;;;;;;;10.00;8.70;;;;;;;12.46;95.10;100965.92;105802;1259;96621;-86
2023/08/10 02:14:36;;;;;;;8.40;7.10;;;;;;;12.42;95.11;100965.14;105763;1259;97071;-85
2023/08/10 02:17:22;;;;;;;9.10;8.20;;;;;;;12.40;95.16;100969.50;105846;1261;100942;-85
2023/08/10 02:20:13;;;;;;;10.10;8.10;;;;;;;12.38;95.05;100968.07;105732;1266;99238;-87
2023/08/10 02:22:58;;;;;;;10.40;7.60;;;;;;;12.38;95.52;100970.47;105829;1260;97819;-87
2023/08/10 02:25:44;;;;;;;14.40;9.40;;;;;;;12.38;95.92;100972.87;105850;1259;96560;-87
2023/08/10 02:28:30;;;;;;;10.80;8.70;;;;;;;12.40;96.04;100973.27;105884;1259;97073;-87
2023/08/10 02:31:16;;;;;;;10.30;8.00;;;;;;;12.40;96.05;100973.80;105738;1260;99999;-85
2023/08/10 02:34:03;;;;;;;9.70;8.50;;;;;;;12.40;95.90;100975.91;105782;1260;99647;-85
2023/08/10 02:36:51;;;;;;;10.50;9.10;;;;;;;12.40;95.90;100974.50;105680;1266;97829;-86
2023/08/10 02:39:37;;;;;;;10.50;9.30;;;;;;;12.40;96.24;100979.01;105562;1259;96715;-87
2023/08/10 02:42:24;;;;;;;11.90;9.20;;;;;;;12.39;96.15;100978.38;105697;1260;96677;-87
2023/08/10 02:45:10;;;;;;;11.30;9.50;;;;;;;12.38;96.34;100974.20;105854;1259;100123;-86
2023/08/10 02:47:56;;;;;;;10.30;9.30;;;;;;;12.37;96.61;100976.63;105968;1261;99658;-86
2023/08/10 02:50:42;;;;;;;11.80;9.70;;;;;;;12.36;96.43;100976.90;105707;1259;99225;-86
2023/08/10 02:53:28;;;;;;;10.80;9.00;;;;;;;12.36;96.16;100976.44;105785;1266;97446;-86
2023/08/10 02:56:13;;;;;;;10.90;9.40;;;;;;;12.35;96.34;100979.73;105852;1259;96716;-86
2023/08/10 02:58:59;;;;;;;12.50;8.90;;;;;;;12.34;96.37;100979.68;105692;1260;100126;-86
2023/08/10 03:01:46;;;;;;;10.30;9.20;;;;;;;12.32;96.15;100979.25;105755;1259;99145;-87
2023/08/10 03:04:32;;;;;;;11.20;8.60;;;;;;;12.30;96.04;100980.58;105847;1265;99148;-86
2023/08/10 03:07:17;;;;;;;12.50;8.80;;;;;;;12.28;95.55;100986.96;105649;1260;96765;-87
2023/08/10 03:10:04;;;;;;;9.00;8.00;;;;;;;12.25;95.49;100989.23;105788;1261;97130;-87
2023/08/10 03:12:51;;;;;;;10.20;9.00;;;;;;;12.23;95.81;100998.09;105850;1259;100733;-86
2023/08/10 03:15:38;;;;;;;10.80;9.50;;;;;;;12.22;95.89;101000.93;105845;1259;99310;-86
2023/08/10 03:18:24;;;;;;;13.10;10.10;;;;;;;12.22;96.40;101006.94;105892;1260;97834;-86
2023/08/10 03:21:10;;;;;;;13.00;9.90;;;;;;;12.22;96.61;101014.03;105808;1259;96623;-85
2023/08/10 03:23:56;;;;;;;12.50;10.00;;;;;;;12.21;96.68;101017.54;105805;1259;97161;-87
2023/08/10 03:26:42;;;;;;;9.90;8.90;;;;;;;12.20;96.77;101018.35;105701;1265;100082;-86
2023/08/10 03:29:28;;;;;;;11.00;9.30;;;;;;;12.19;96.58;101018.70;105748;1263;99193;-85
2023/08/10 03:32:14;;;;;;;10.70;8.60;;;;;;;12.18;96.51;101022.20;105905;1259;98424;-86
2023/08/10 03:34:59;;;;;;;10.00;9.00;;;;;;;12.15;95.98;101021.83;105741;1259;96638;-86
2023/08/10 03:37:45;;;;;;;9.50;8.50;;;;;;;12.13;95.79;101021.02;105805;1264;97065;-85
2023/08/10 03:40:31;;;;;;;9.20;8.30;;;;;;;12.12;95.84;101022.17;105915;1265;101353;-87
2023/08/10 03:43:17;;;;;;;10.30;9.30;;;;;;;12.11;96.28;101022.11;105858;1259;99560;-85
2023/08/10 03:46:03;;;;;;;8.70;7.80;;;;;;;12.11;96.38;101024.13;105768;1262;99200;-85
2023/08/10 03:48:49;;;;;;;10.40;9.30;;;;;;;12.10;96.63;101031.55;105827;1267;96886;-87
2023/08/10 03:51:35;;;;;;;9.90;8.80;;;;;;;12.10;96.87;101031.05;105854;1263;96989;-86
2023/08/10 03:54:21;;;;;;;10.50;9.50;;;;;;;12.10;96.83;101035.69;105944;1259;99999;-85
2023/08/10 03:57:07;;;;;;;9.50;8.60;;;;;;;12.10;96.93;101036.55;105712;1264;99318;-85
2023/08/10 03:59:53;;;;;;;10.70;9.60;;;;;;;12.11;97.02;101039.33;105741;1259;97823;-85
2023/08/10 04:02:39;;;;;;;10.20;9.10;;;;;;;12.12;97.25;101040.17;105827;1259;96716;-86
2023/08/10 04:05:27;;;;;;;9.80;8.80;;;;;;;12.13;97.33;101046.83;105816;1259;96633;-86
2023/08/10 04:08:12;;;;;;;11.20;9.60;;;;;;;12.15;97.49;101052.84;105730;1262;100188;-87
2023/08/10 04:10:59;;;;;;;12.30;11.00;;;;;;;12.17;97.79;101051.52;105824;1264;100236;-85
2023/08/10 04:13:44;;;;;;;13.60;10.30;;;;;;;12.19;97.94;101053.02;105792;1260;99029;-87
2023/08/10 04:16:30;;;;;;;11.10;9.90;;;;;;;12.21;98.31;101052.81;105905;1259;96808;-88
2023/08/10 04:19:16;;;;;;;12.20;10.20;;;;;;;12.23;98.10;101052.92;106077;1264;96390;-85
2023/08/10 04:22:01;;;;;;;10.60;9.50;;;;;;;12.24;97.90;101051.29;105977;1263;100118;-87
2023/08/10 04:24:49;;;;;;;10.10;9.10;;;;;;;12.26;97.57;101054.29;105740;1259;99240;-86
2023/08/10 04:27:35;;;;;;;9.70;8.40;;;;;;;12.26;97.32;101055.73;105961;1260;99112;-85
2023/08/10 04:30:22;;;;;;;9.70;8.80;;;;;;;12.26;97.24;101054.86;105849;1259;96705;-85
2023/08/10 04:33:09;;;;;;;9.60;8.60;;;;;;;12.24;97.30;101050.92;105726;1260;96512;-86
2023/08/10 04:35:54;;;;;;;11.70;9.00;;;;;;;12.24;97.50;101054.92;106064;1263;100801;-86
2023/08/10 04:38:40;;;;;;;8.80;7.90;;;;;;;12.25;97.84;101051.38;106081;1259;99161;-86
2023/08/10 04:41:26;;;;;;;14.10;9.70;;;;;;;12.26;97.72;101056.48;105963;1259;98327;-85
2023/08/10 04:44:12;;;;;;;11.60;10.40;;;;;;;12.22;97.29;101058.33;105853;1261;96675;-87
2023/08/10 04:46:58;;;;;;;11.50;8.80;;;;;;;12.19;97.02;101061.23;105736;1264;97116;-87
2023/08/10 04:49:44;;;;;;;11.80;7.40;;;;;;;12.19;96.86;101065.79;105882;1264;100212;-87
2023/08/10 04:52:30;;;;;;;10.40;5.80;;;;;;;12.19;96.83;101070.23;105880;1263;99180;-86
2023/08/10 04:55:15;;;;;;;7.60;6.10;;;;;;;12.18;96.55;101070.75;105739;1265;97790;-86
2023/08/10 04:58:01;;;;;;;9.10;5.30;;;;;;;12.15;96.61;101066.45;106035;1259;96679;-87
2023/08/10 05:00:47;;;;;;;8.70;4.80;;;;;;;12.14;97.07;101071.70;105959;1264;96612;-86
2023/08/10 05:03:33;;;;;;;6.50;5.80;;;;;;;12.16;97.32;101080.27;105731;1260;100092;-86
2023/08/10 05:06:19;;;;;;;7.60;6.20;;;;;;;12.20;97.87;101082.27;105867;1259;100172;-85
2023/08/10 05:09:05;;;;;;;8.50;6.70;;;;;;;12.25;98.49;101083.58;105959;1259;97835;-86
2023/08/10 05:11:50;;;;;;;9.40;7.10;;;;;;;12.32;98.85;101088.96;105819;1259;96686;-87
2023/08/10 05:14:36;;;;;;;15.80;11.20;;;;;;;12.42;99.33;101093.27;105857;1259;97271;-87
2023/08/10 05:17:22;;;;;;;14.80;13.00;;;;;;;12.52;99.86;101091.24;105573;1259;100104;-86
2023/08/10 05:20:12;;;;;;;18.10;14.10;;;;;;;12.63;100.00;101090.07;106110;1262;99108;-87
2023/08/10 05:22:57;;;;;;;17.40;15.60;;;;;;;12.75;100.00;101086.95;106009;1259;97948;-86
2023/08/10 05:25:43;;;;;;;19.00;15.90;;;;;;;12.87;100.00;101088.65;105932;1259;96519;-86
2023/08/10 05:28:29;;;;;;;22.00;16.80;;;;;;;12.98;100.00;101088.16;105954;1259;97044;-86
2023/08/10 05:31:15;;;;;;;20.20;17.60;;;;;;;13.08;100.00;101091.70;106054;1259;100790;-87
2023/08/10 05:34:01;;;;;;;21.50;18.10;;;;;;;13.21;100.00;101094.84;105976;1270;108016;-87
2023/08/10 05:36:47;;;;;;;21.30;19.00;;;;;;;13.29;100.00;101099.32;106033;1265;97808;-88
2023/08/10 05:39:33;;;;;;;20.10;17.40;;;;;;;13.38;100.00;101102.55;106029;1259;96664;-86
2023/08/10 05:42:21;;;;;;;17.90;15.90;;;;;;;13.47;100.00;101099.00;106028;1259;96616;-87
2023/08/10 05:45:08;;;;;;;20.90;16.00;;;;;;;13.55;100.00;101103.04;106047;1262;101034;-86
2023/08/10 05:47:54;;;;;;;21.70;16.50;;;;;;;13.62;100.00;101106.45;106043;1259;99931;-86
2023/08/10 05:50:40;;;;;;;17.90;15.20;;;;;;;13.67;100.00;101106.45;106035;1259;97823;-86
2023/08/10 05:53:26;;;;;;;18.90;15.80;;;;;;;13.71;100.00;101108.31;105927;1266;96542;-87
2023/08/10 05:56:12;;;;;;;17.70;15.60;;;;;;;13.75;100.00;101108.64;105973;1266;97664;-86
2023/08/10 05:58:58;;;;;;;16.80;15.00;;;;;;;13.81;100.00;101106.70;106058;1265;100078;-90
2023/08/10 06:01:45;;;;;;;21.60;15.50;;;;;;;13.87;100.00;101110.71;106503;1259;99197;-92
2023/08/10 06:04:31;;;;;;;19.90;15.90;;;;;;;13.95;100.00;101110.44;106314;1259;97617;-84
2023/08/10 06:07:17;;;;;;;18.60;16.60;;;;;;;14.02;100.00;101113.61;105679;1259;96540;-85
2023/08/10 06:10:04;;;;;;;18.20;15.80;;;;;;;14.10;100.00;101119.63;105945;1259;97230;-86
2023/08/10 06:12:58;;;;;;;17.70;15.70;;;;;;;14.18;100.00;101120.76;105905;1261;101385;-92
2023/08/10 06:15:47;;;;;;;18.50;15.40;;;;;;;14.27;100.00;101120.14;106426;1260;100167;-81
2023/08/10 06:18:34;;;;;;;19.20;16.70;;;;;;;14.38;100.00;101122.41;105974;1265;99130;-84
2023/08/10 06:21:19;;;;;;;19.40;17.40;;;;;;;14.51;100.00;101126.43;106363;1262;96633;-80
2023/08/10 06:24:08;;;;;;;19.90;16.70;;;;;;;14.65;100.00;101125.20;106368;1264;97032;-80
2023/08/10 06:26:55;;;;;;;19.30;16.80;;;;;;;14.80;100.00;101126.23;105942;1264;100855;-81
2023/08/10 06:29:41;;;;;;;18.40;15.60;;;;;;;14.95;100.00;101125.29;106694;1259;100320;-90
2023/08/10 06:32:27;;;;;;;18.50;14.70;;;;;;;15.11;100.00;101126.73;106599;1264;99032;-87
2023/08/10 06:35:13;;;;;;;18.80;14.30;;;;;;;15.25;100.00;101125.00;106602;1259;95835;-89
2023/08/10 06:38:04;;;;;;;16.60;14.00;;;;;;;15.36;100.00;101124.78;106577;1259;96592;-92
2023/08/10 06:40:56;;;;;;;19.20;13.60;;;;;;;15.49;100.00;101128.48;106067;1259;102418;-83
2023/08/10 06:43:42;;;;;;;16.30;13.10;;;;;;;15.61;100.00;101128.41;106051;1259;100408;-88
2023/08/10 06:46:29;;;;;;;16.10;14.10;;;;;;;15.74;100.00;101130.48;105896;1260;99057;-86
2023/08/10 06:49:16;;;;;;;18.10;12.80;;;;;;;15.87;100.00;101129.38;105939;1265;96736;-80
2023/08/10 06:52:04;;;;;;;17.10;12.80;;;;;;;16.00;100.00;101129.70;106091;1260;97081;-86
2023/08/10 06:54:53;;;;;;;14.90;12.40;;;;;;;16.10;100.00;101132.65;106326;1263;101343;-90
2023/08/10 06:57:38;;;;;;;17.40;11.20;;;;;;;16.20;100.00;101133.13;106243;1265;99210;-85
2023/08/10 07:00:24;;;;;;;15.80;10.80;;;;;;;16.28;100.00;101131.40;106096;1267;99080;-86
2023/08/10 07:03:11;;;;;;;11.80;9.40;;;;;;;16.40;100.00;101131.80;105864;1262;96564;-86
2023/08/10 07:05:56;;;;;;;10.50;9.40;;;;;;;16.51;100.00;101136.58;105881;1267;98393;-87
2023/08/10 07:08:43;;;;;;;9.80;8.80;;;;;;;16.60;100.00;101136.89;105596;1259;102227;-82
2023/08/10 07:11:29;;;;;;;10.90;9.10;;;;;;;16.68;100.00;101139.87;105958;1259;100093;-82
2023/08/10 07:14:14;;;;;;;13.80;9.90;;;;;;;16.80;100.00;101138.63;106196;1267;98534;-85
2023/08/10 07:17:02;;;;;;;11.80;8.70;;;;;;;16.89;100.00;101134.71;105560;1259;96630;-83
2023/08/10 07:19:48;;;;;;;14.30;7.90;;;;;;;17.03;100.00;101138.05;105838;1259;97145;-84
2023/08/10 07:22:34;;;;;;;8.90;5.30;;;;;;;17.13;99.99;101137.67;105899;1259;100773;-82
2023/08/10 07:25:20;;;;;;;9.60;6.40;;;;;;;17.24;100.00;101137.95;105870;1259;99246;-81
2023/08/10 07:28:06;;;;;;;9.10;5.70;;;;;;;17.35;99.49;101134.80;106145;1262;98026;-82
2023/08/10 07:30:52;;;;;;;11.70;5.50;;;;;;;17.44;98.97;101136.08;105671;1267;96522;-87
2023/08/10 07:33:38;;;;;;;8.80;5.20;;;;;;;17.53;98.99;101135.66;105996;1263;96596;-79
2023/08/10 07:36:25;;;;;;;10.40;4.20;;;;;;;17.63;97.66;101137.14;106224;1260;102721;-81
2023/08/10 07:39:13;;;;;;;9.70;5.50;;;;;;;17.73;96.93;101142.98;106580;1259;99869;-81
2023/08/10 07:41:59;;;;;;;8.40;4.40;;;;;;;17.83;97.66;101139.90;106756;1259;97796;-79
2023/08/10 07:44:44;;;;;;;6.00;3.40;;;;;;;17.94;96.46;101141.02;106735;1259;96710;-82
2023/08/10 07:47:30;;;;;;;7.40;3.90;;;;;;;18.02;94.75;101145.19;106677;1260;96551;-81
2023/08/10 07:50:15;;;;;;;9.90;4.50;;;;;;;18.12;94.63;101150.23;106718;1259;99991;-85
2023/08/10 07:53:03;;;;;;;8.10;3.20;;;;;;;18.21;94.16;101148.87;106222;1260;100440;-78
2023/08/10 07:55:48;;;;;;;8.40;3.50;;;;;;;18.31;92.21;101148.94;105874;1259;99041;-84
2023/08/10 07:58:34;;;;;;;4.20;2.60;;;;;;;18.37;90.84;101152.34;105771;1259;96536;-84
2023/08/10 08:01:20;;;;;;;9.30;2.70;;;;;;;18.45;90.58;101152.73;106056;1260;97045;-88
2023/08/10 08:04:06;;;;;;;6.30;2.90;;;;;;;18.53;89.10;101147.23;105917;1267;100112;-85
2023/08/10 08:06:52;;;;;;;4.30;1.90;;;;;;;18.60;87.72;101143.09;105921;1259;99209;-85
2023/08/10 08:09:39;;;;;;;4.90;1.80;;;;;;;18.68;87.53;101146.35;106052;1260;97527;-85
2023/08/10 08:12:26;;;;;;;3.50;1.70;;;;;;;18.75;85.91;101149.02;105690;1270;96222;-86
2023/08/10 08:15:12;;;;;;;4.90;1.70;;;;;;;18.79;84.02;101149.89;105812;1267;96724;-84
2023/08/10 08:18:55;;;;;;;3.00;1.70;;;;;;;18.83;82.29;101150.77;105931;1265;100140;-85
2023/08/10 08:21:42;;;;;;;9.80;1.80;;;;;;;18.91;83.14;101148.63;105376;1271;99860;-86
2023/08/10 08:24:28;;;;;;;4.20;1.70;;;;;;;18.96;81.88;101148.00;105377;1267;99363;-86
2023/08/10 08:27:18;;;;;;;4.50;1.60;;;;;;;19.02;81.53;101146.42;105886;1265;96590;-85
2023/08/10 08:30:04;;;;;;;3.20;1.50;;;;;;;19.07;80.21;101149.95;106360;1259;97851;-82
2023/08/10 08:32:50;;;;;;;4.90;1.60;;;;;;;19.11;78.64;101148.65;106130;1259;100025;-85
2023/08/10 08:35:36;;;;;;;5.00;1.40;;;;;;;19.17;79.70;101150.99;106037;1265;100425;-87
2023/08/10 08:38:23;;;;;;;4.70;1.50;;;;;;;19.27;80.03;101157.42;105776;1260;98895;-84
2023/08/10 08:41:10;;;;;;;3.70;1.40;;;;;;;19.34;77.19;101159.73;106093;1259;96616;-86
2023/08/10 08:43:56;;;;;;;3.60;1.80;;;;;;;19.34;75.76;101158.42;105748;1265;97040;-85
2023/08/10 08:46:45;;;;;;;2.90;1.50;;;;;;;19.38;75.26;101156.80;106090;1261;100070;-88
2023/08/10 08:49:30;;;;;;;7.50;2.00;;;;;;;19.39;75.09;101155.90;105842;1265;100137;-85
2023/08/10 08:52:17;;;;;;;6.90;2.50;;;;;;;19.42;75.43;101153.93;106012;1265;98275;-84
2023/08/10 08:55:03;;;;;;;5.60;2.20;;;;;;;19.48;75.87;101153.77;105970;1259;96681;-84
2023/08/10 08:57:49;;;;;;;4.40;1.50;;;;;;;19.55;75.99;101149.98;106118;1260;96688;-83
2023/08/10 09:00:35;;;;;;;4.00;1.70;;;;;;;19.65;76.24;101151.33;106018;1259;101691;-83
2023/08/10 09:03:26;;;;;;;3.60;1.70;;;;;;;19.69;75.64;101150.43;106042;1265;99171;-83
2023/08/10 09:06:12;;;;;;;4.50;1.70;;;;;;;19.60;74.24;101151.83;105852;1259;99130;-82
2023/08/10 09:08:57;;;;;;;4.30;1.90;;;;;;;19.52;73.61;101149.52;106049;1259;96801;-83
2023/08/10 09:11:43;;;;;;;7.50;1.90;;;;;;;19.55;73.67;101151.02;105921;1268;96856;-85
2023/08/10 09:14:29;;;;;;;2.50;1.60;;;;;;;19.61;73.00;101152.60;106173;1259;100075;-82
2023/08/10 09:17:14;;;;;;;2.70;1.50;;;;;;;19.71;74.10;101152.48;105642;1259;100618;-82
2023/08/10 09:20:00;;;;;;;3.70;1.90;;;;;;;19.86;73.86;101152.33;106151;1259;98462;-83
2023/08/10 09:22:46;;;;;;;5.40;1.60;;;;;;;20.01;73.09;101157.64;106397;1262;96530;-80
2023/08/10 09:25:38;;;;;;;6.80;2.60;;;;;;;20.11;72.45;101155.05;106996;1260;125528;-81
2023/08/10 09:28:23;;;;;;;5.90;2.70;;;;;;;20.15;71.24;101156.99;106355;1261;100208;-80
2023/08/10 09:31:11;;;;;;;9.20;3.50;;;;;;;20.10;71.10;101157.30;106069;1265;99113;-80
2023/08/10 09:33:59;;;;;;;7.40;3.00;;;;;;;20.12;71.77;101159.05;106214;1263;97754;-80
2023/08/10 09:36:53;;;;;;;5.60;2.80;;;;;;;20.20;71.45;101152.08;105993;1259;96675;-81
2023/08/10 09:39:39;;;;;;;5.30;2.30;;;;;;;20.30;71.56;101155.09;105656;1265;97580;-84
2023/08/10 09:42:25;;;;;;;10.00;2.70;;;;;;;20.43;71.96;101157.14;105769;1266;100009;-80
2023/08/10 09:45:13;;;;;;;5.70;2.40;;;;;;;20.55;71.06;101156.98;105804;1262;99094;-81
2023/08/10 09:47:59;;;;;;;8.30;2.30;;;;;;;20.63;70.91;101163.67;105757;1263;98840;-82
2023/08/10 09:50:45;;;;;;;4.80;1.70;;;;;;;20.63;69.03;101161.58;106050;1269;97235;-80
2023/08/10 09:53:32;;;;;;;5.20;1.70;;;;;;;20.56;68.76;101163.85;105961;1262;96363;-81
2023/08/10 09:56:18;;;;;;;4.50;1.80;;;;;;;20.61;69.19;101163.25;106126;1262;100119;-81
2023/08/10 09:59:03;;;;;;;5.20;3.10;;;;;;;20.72;69.20;101164.70;106042;1268;99267;-82
2023/08/10 10:01:48;;;;;;;5.70;2.00;;;;;;;20.86;69.18;101159.38;106003;1264;97815;-81
2023/08/10 10:04:34;;;;;;;6.10;2.00;;;;;;;21.00;68.95;101159.25;105849;1263;96620;-82
2023/08/10 10:07:28;;;;;;;5.10;1.80;;;;;;;21.10;68.48;101160.25;106052;1263;97148;-83
2023/08/10 10:10:16;;;;;;;3.80;1.50;;;;;;;21.20;67.17;101160.67;105946;1261;100000;-81
2023/08/10 10:13:08;;;;;;;2.60;1.30;;;;;;;21.31;65.67;101160.77;106149;1260;99107;-81
2023/08/10 10:15:55;;;;;;;4.10;1.40;;;;;;;21.44;65.52;101162.81;106153;1264;99020;-82
2023/08/10 10:18:41;;;;;;;3.60;1.70;;;;;;;21.54;65.74;101161.08;106172;1264;95704;-83
2023/08/10 10:21:27;;;;;;;7.30;2.30;;;;;;;21.59;64.67;101163.41;106293;1259;96433;-83
2023/08/10 10:24:13;;;;;;;5.50;1.80;;;;;;;21.61;64.87;101163.73;106541;1265;100889;-81
2023/08/10 10:26:58;;;;;;;2.10;1.50;;;;;;;21.64;64.64;101164.82;106145;1259;99962;-83
2023/08/10 10:29:58;;;;;;;5.30;1.60;;;;;;;21.64;63.44;101165.09;106069;1259;99052;-82
2023/08/10 10:32:48;;;;;;;3.90;1.40;;;;;;;21.63;63.73;101168.12;106145;1260;97799;-83
2023/08/10 10:35:34;;;;;;;2.70;1.50;;;;;;;21.67;62.52;101171.31;105908;1260;96711;-80
2023/08/10 10:38:19;;;;;;;4.50;1.70;;;;;;;21.70;62.11;101168.84;106125;1260;99998;-83
2023/08/10 10:41:16;;;;;;;3.30;1.40;;;;;;;21.77;63.25;101168.87;106325;1265;99174;-81
2023/08/10 10:44:05;;;;;;;8.50;1.30;;;;;;;21.88;63.02;101165.15;106006;1259;97743;-82
2023/08/10 10:46:51;;;;;;;2.50;1.50;;;;;;;21.97;63.15;101164.01;106048;1260;96613;-82
2023/08/10 10:49:53;;;;;;;16.50;2.70;;;;;;;22.05;62.93;101167.84;106059;1259;97493;-83
2023/08/10 10:52:39;;;;;;;7.50;2.10;;;;;;;22.10;62.93;101162.04;106095;1265;100075;-83
2023/08/10 10:55:34;;;;;;;4.10;1.50;;;;;;;22.16;62.65;101159.23;106095;1259;99647;-82
2023/08/10 10:58:19;;;;;;;4.00;1.40;;;;;;;22.22;62.03;101156.92;106101;1262;97801;-82
2023/08/10 11:01:05;;;;;;;8.90;2.60;;;;;;;22.28;62.26;101153.64;106133;1260;98041;-81
2023/08/10 11:03:55;;;;;;;2.40;1.20;;;;;;;22.37;62.48;101156.60;106050;1260;97509;-80
2023/08/10 11:06:40;;;;;;;3.80;1.40;;;;;;;22.45;61.19;101156.39;105984;1265;100080;-82
2023/08/10 11:09:26;;;;;;;4.20;1.40;;;;;;;22.39;59.68;101152.97;106165;1259;99248;-82
2023/08/10 11:12:12;;;;;;;3.80;1.40;;;;;;;22.29;58.13;101150.42;105970;1264;99055;-81
2023/08/10 11:14:58;;;;;;;5.70;1.60;;;;;;;22.28;58.18;101151.01;105939;1260;96622;-81
2023/08/10 11:17:48;;;;;;;11.00;2.90;;;;;;;22.25;58.69;101150.27;106017;1264;96741;-82
2023/08/10 11:20:33;;;;;;;5.70;2.40;;;;;;;22.19;58.16;101149.41;106046;1259;100036;-83
2023/08/10 11:23:19;;;;;;;4.50;1.50;;;;;;;22.17;58.21;101148.02;105999;1260;99036;-82
2023/08/10 11:26:05;;;;;;;5.80;1.40;;;;;;;22.23;59.34;101147.12;105819;1266;97939;-82
2023/08/10 11:28:52;;;;;;;3.50;1.30;;;;;;;22.33;59.41;101150.09;105999;1260;96636;-81
2023/08/10 11:31:41;;;;;;;5.40;1.80;;;;;;;22.40;58.69;101151.19;105953;1259;96613;-82
2023/08/10 11:34:27;;;;;;;1.90;1.20;;;;;;;22.42;58.23;101152.09;106010;1265;101361;-82
2023/08/10 11:37:13;;;;;;;2.90;1.50;;;;;;;22.41;57.03;101149.61;106014;1260;99855;-82
2023/08/10 11:40:06;;;;;;;4.30;1.40;;;;;;;22.35;57.24;101150.18;106194;1267;98143;-81
2023/08/10 11:43:12;;;;;;;5.10;1.40;;;;;;;22.32;58.57;101150.30;106272;1264;96537;-81
2023/08/10 11:45:57;;;;;;;3.20;1.20;;;;;;;22.31;57.39;101148.70;105984;1265;96653;-82
2023/08/10 11:48:43;;;;;;;5.00;1.80;;;;;;;22.36;57.01;101146.16;106059;1263;100086;-83
2023/08/10 11:51:34;;;;;;;1.70;1.00;;;;;;;22.45;57.73;101144.10;106224;1264;100345;-81
2023/08/10 11:54:28;;;;;;;5.20;1.20;;;;;;;22.56;56.46;101145.73;106177;1265;98931;-82
2023/08/10 11:57:13;;;;;;;4.70;1.20;;;;;;;22.65;56.37;101143.55;106352;1265;96714;-83
2023/08/10 12:00:16;;;;;;;4.60;1.30;;;;;;;22.70;55.94;101139.25;106080;1265;97130;-82
2023/08/10 12:03:06;;;;;;;2.20;1.20;;;;;;;22.77;56.28;101135.61;105904;1265;100856;-80
2023/08/10 12:05:54;;;;;;;2.90;1.30;;;;;;;22.85;56.52;101132.84;105937;1267;99833;-81
2023/08/10 12:08:40;;;;;;;2.90;1.20;;;;;;;22.94;56.03;101130.30;106040;1265;99111;-82
2023/08/10 12:11:26;;;;;;;2.40;1.30;;;;;;;22.98;55.30;101130.85;105755;1261;96608;-80
2023/08/10 12:14:12;;;;;;;2.90;1.10;;;;;;;23.03;55.79;101131.30;105899;1264;96225;-82
2023/08/10 12:16:57;;;;;;;3.30;1.40;;;;;;;23.13;56.00;101130.15;105981;1261;101315;-82
2023/08/10 12:19:43;;;;;;;4.10;1.20;;;;;;;23.23;56.36;101127.91;106257;1266;99177;-80
2023/08/10 12:22:28;;;;;;;3.70;1.30;;;;;;;23.33;56.05;101124.21;105953;1265;98540;-81
2023/08/10 12:25:14;;;;;;;2.40;1.10;;;;;;;23.39;55.02;101126.14;106013;1263;96624;-82
2023/08/10 12:27:59;;;;;;;26.30;4.40;;;;;;;23.39;53.77;101121.38;106021;1260;97228;-82
2023/08/10 12:30:45;;;;;;;8.50;1.50;;;;;;;23.42;53.97;101124.14;106157;1261;100047;-82
2023/08/10 12:33:31;;;;;;;2.10;1.10;;;;;;;23.46;53.30;101123.26;106137;1266;99169;-83
2023/08/10 12:36:17;;;;;;;7.20;2.00;;;;;;;23.50;53.38;101119.35;105919;1265;97831;-81
2023/08/10 12:39:04;;;;;;;2.60;1.10;;;;;;;23.55;53.00;101122.73;105931;1265;96737;-81
2023/08/10 12:41:50;;;;;;;2.70;0.90;;;;;;;23.62;53.49;101119.68;106043;1261;97147;-82